createdAt,value
2023-05-16T00:01:52.425Z,12.39
2023-05-16T00:04:21.578Z,12.40
2023-05-16T00:06:49.838Z,12.40
2023-05-16T00:09:20.594Z,12.41
2023-05-16T00:11:48.712Z,12.40
2023-05-16T00:14:17.233Z,12.39
2023-05-16T00:16:45.812Z,12.37
2023-05-16T00:19:17.195Z,12.37
2023-05-16T00:21:45.086Z,12.36
2023-05-16T00:24:12.858Z,12.34
2023-05-16T00:26:40.782Z,12.33
2023-05-16T00:29:09.262Z,12.33
2023-05-16T00:31:37.670Z,12.32
2023-05-16T00:34:08.716Z,12.31
2023-05-16T00:36:36.594Z,12.30
2023-05-16T00:39:04.434Z,12.30
2023-05-16T00:41:34.451Z,12.29
2023-05-16T00:44:02.427Z,12.29
2023-05-16T00:46:30.841Z,12.30
2023-05-16T00:48:59.143Z,12.32
2023-05-16T00:51:27.007Z,12.32
2023-05-16T00:53:56.983Z,12.30
2023-05-16T00:56:25.169Z,12.27
2023-05-16T00:58:52.950Z,12.22
2023-05-16T01:01:25.600Z,12.15
2023-05-16T01:03:53.956Z,12.10
2023-05-16T01:06:22.078Z,12.03
2023-05-16T01:08:51.152Z,11.97
2023-05-16T01:11:33.453Z,11.90
2023-05-16T01:14:24.469Z,11.83
2023-05-16T01:16:58.367Z,11.76
2023-05-16T01:19:33.273Z,11.70
2023-05-16T01:22:17.319Z,11.64
2023-05-16T01:25:10.654Z,11.57
2023-05-16T01:27:39.292Z,11.52
2023-05-16T01:30:16.961Z,11.47
2023-05-16T01:32:46.041Z,11.43
2023-05-16T01:35:17.590Z,11.38
2023-05-16T01:37:52.906Z,11.34
2023-05-16T01:40:35.338Z,11.30
2023-05-16T01:43:09.465Z,11.26
2023-05-16T01:48:25.899Z,11.23
2023-05-16T01:50:57.637Z,11.15
2023-05-16T01:53:34.212Z,11.11
2023-05-16T01:56:02.915Z,11.07
2023-05-16T01:58:35.168Z,11.03
2023-05-16T02:01:05.773Z,11.00
2023-05-16T02:03:35.126Z,10.98
2023-05-16T02:06:03.063Z,10.96
2023-05-16T02:08:31.784Z,10.93
2023-05-16T02:10:59.779Z,10.90
2023-05-16T02:13:27.956Z,10.85
2023-05-16T02:15:55.764Z,10.79
2023-05-16T02:18:23.820Z,10.72
2023-05-16T02:20:52.039Z,10.68
2023-05-16T02:23:19.818Z,10.64
2023-05-16T02:25:47.560Z,10.60
2023-05-16T02:28:15.759Z,10.55
2023-05-16T02:30:43.555Z,10.51
2023-05-16T02:33:11.891Z,10.48
2023-05-16T02:35:39.714Z,10.45
2023-05-16T02:38:07.647Z,10.43
2023-05-16T02:40:35.632Z,10.41
2023-05-16T02:43:03.988Z,10.39
2023-05-16T02:45:32.028Z,10.38
2023-05-16T02:47:59.898Z,10.39
2023-05-16T02:50:27.696Z,10.39
2023-05-16T02:52:55.559Z,10.40
2023-05-16T02:55:23.317Z,10.40
2023-05-16T02:57:52.518Z,10.42
2023-05-16T03:00:21.311Z,10.42
2023-05-16T03:02:49.424Z,10.44
2023-05-16T03:05:17.572Z,10.45
2023-05-16T03:07:45.454Z,10.45
2023-05-16T03:10:13.257Z,10.47
2023-05-16T03:12:40.985Z,10.51
2023-05-16T03:15:09.415Z,10.55
2023-05-16T03:17:37.183Z,10.60
2023-05-16T03:20:09.125Z,10.64
2023-05-16T03:22:37.444Z,10.67
2023-05-16T03:25:05.856Z,10.71
2023-05-16T03:27:33.636Z,10.77
2023-05-16T03:30:01.347Z,10.80
2023-05-16T03:32:29.110Z,10.84
2023-05-16T03:34:56.997Z,10.87
2023-05-16T03:37:26.086Z,10.91
2023-05-16T03:39:55.943Z,10.95
2023-05-16T03:42:32.381Z,11.00
2023-05-16T03:45:01.673Z,11.07
2023-05-16T03:47:31.437Z,11.12
2023-05-16T03:49:59.208Z,11.20
2023-05-16T03:52:27.164Z,11.28
2023-05-16T03:54:54.976Z,11.40
2023-05-16T03:57:22.994Z,11.50
2023-05-16T03:59:50.785Z,11.60
2023-05-16T04:02:18.968Z,11.68
2023-05-16T04:04:47.473Z,11.72
2023-05-16T04:07:15.744Z,11.75
2023-05-16T04:09:58.921Z,11.74
2023-05-16T04:12:27.214Z,11.75
2023-05-16T04:14:57.671Z,11.78
2023-05-16T04:17:28.183Z,11.82
2023-05-16T04:19:56.566Z,11.88
2023-05-16T04:22:24.534Z,11.96
2023-05-16T04:24:52.320Z,12.05
2023-05-16T04:27:23.298Z,12.14
2023-05-16T04:33:17.009Z,12.37
2023-05-16T04:35:48.722Z,12.48
2023-05-16T04:38:17.003Z,12.59
2023-05-16T04:40:44.967Z,12.71
2023-05-16T04:43:13.209Z,12.83
2023-05-16T04:45:42.899Z,12.93
2023-05-16T04:48:12.021Z,13.04
2023-05-16T04:50:39.756Z,13.23
2023-05-16T04:53:07.568Z,13.69
2023-05-16T04:55:35.455Z,14.19
2023-05-16T04:58:03.799Z,14.51
2023-05-16T05:00:32.173Z,14.53
2023-05-16T05:03:00.480Z,14.48
2023-05-16T05:05:28.456Z,14.46
2023-05-16T05:07:58.515Z,14.47
2023-05-16T05:10:32.070Z,14.50
2023-05-16T05:13:00.434Z,14.55
2023-05-16T05:15:28.344Z,14.61
2023-05-16T05:17:56.387Z,14.68
2023-05-16T05:20:24.817Z,14.76
2023-05-16T05:22:57.398Z,14.83
2023-05-16T05:25:26.029Z,14.90
2023-05-16T05:27:54.325Z,14.94
2023-05-16T05:30:22.102Z,14.95
2023-05-16T05:32:50.095Z,14.97
2023-05-16T05:35:18.156Z,14.98
2023-05-16T05:37:46.428Z,15.01
2023-05-16T05:40:14.658Z,15.06
2023-05-16T05:42:45.398Z,15.11
2023-05-16T05:45:16.319Z,15.20
2023-05-16T05:47:44.368Z,15.28
2023-05-16T05:50:13.120Z,15.36
2023-05-16T05:52:40.988Z,15.41
2023-05-16T05:55:09.410Z,15.49
2023-05-16T05:57:37.836Z,15.56
2023-05-16T06:00:07.957Z,15.63
2023-05-16T06:02:36.168Z,15.70
2023-05-16T06:05:04.667Z,15.77
2023-05-16T06:07:32.492Z,15.81
2023-05-16T06:10:05.290Z,15.88
2023-05-16T06:12:33.889Z,15.95
2023-05-16T06:15:04.645Z,16.00
2023-05-16T06:17:32.618Z,16.04
2023-05-16T06:20:00.432Z,16.12
2023-05-16T06:22:28.776Z,16.22
2023-05-16T06:24:57.689Z,16.30
2023-05-16T06:27:25.728Z,16.40
2023-05-16T06:29:53.639Z,16.53
2023-05-16T06:32:24.623Z,16.66
2023-05-16T06:34:52.950Z,16.78
2023-05-16T06:37:26.615Z,16.88
2023-05-16T06:40:00.542Z,16.96
2023-05-16T06:42:28.377Z,17.03
2023-05-16T06:44:56.183Z,17.07
2023-05-16T06:47:24.429Z,17.10
2023-05-16T06:49:53.498Z,17.15
2023-05-16T06:52:25.655Z,17.21
2023-05-16T06:54:53.721Z,17.27
2023-05-16T06:57:21.653Z,17.29
2023-05-16T06:59:49.472Z,17.31
2023-05-16T07:02:17.793Z,17.36
2023-05-16T07:04:46.724Z,17.42
2023-05-16T07:07:15.366Z,17.49
2023-05-16T07:09:43.689Z,17.55
2023-05-16T07:12:11.674Z,17.60
2023-05-16T07:14:41.145Z,17.64
2023-05-16T07:17:09.581Z,17.69
2023-05-16T07:19:37.887Z,17.74
2023-05-16T07:22:05.789Z,17.83
2023-05-16T07:24:33.595Z,17.89
2023-05-16T07:27:01.388Z,17.89
2023-05-16T07:29:30.522Z,17.93
2023-05-16T07:31:59.591Z,18.03
2023-05-16T07:34:28.053Z,18.10
2023-05-16T07:36:55.849Z,18.18
2023-05-16T07:39:23.629Z,18.27
2023-05-16T07:41:51.557Z,18.36
2023-05-16T07:44:19.483Z,18.46
2023-05-16T07:46:47.690Z,18.57
2023-05-16T07:49:16.333Z,18.64
2023-05-16T07:51:44.391Z,18.70
2023-05-16T07:54:12.130Z,18.72
2023-05-16T07:56:39.990Z,18.75
2023-05-16T07:59:08.078Z,18.86
2023-05-16T08:01:37.567Z,18.99
2023-05-16T08:04:05.967Z,19.10
2023-05-16T08:06:34.798Z,19.17
2023-05-16T08:09:02.777Z,19.23
2023-05-16T08:11:30.694Z,19.26
2023-05-16T08:13:58.519Z,19.30
2023-05-16T08:16:26.833Z,19.35
2023-05-16T08:18:55.635Z,19.36
2023-05-16T08:21:23.696Z,19.44
2023-05-16T08:23:51.856Z,19.49
2023-05-16T08:26:19.605Z,19.42
2023-05-16T08:28:48.027Z,19.43
2023-05-16T08:31:16.716Z,19.49
2023-05-16T08:33:45.231Z,19.56
2023-05-16T08:36:13.239Z,19.64
2023-05-16T08:38:41.144Z,19.68
2023-05-16T08:41:08.899Z,19.72
2023-05-16T08:43:36.900Z,19.73
2023-05-16T08:46:08.355Z,19.66
2023-05-16T08:48:37.411Z,19.67
2023-05-16T08:51:08.219Z,19.71
2023-05-16T08:53:43.284Z,19.74
2023-05-16T08:56:14.274Z,19.77
2023-05-16T08:58:42.204Z,19.74
2023-05-16T09:01:10.843Z,19.73
2023-05-16T09:03:39.670Z,19.76
2023-05-16T09:06:08.454Z,19.81
2023-05-16T09:08:36.930Z,19.86
2023-05-16T09:11:05.524Z,19.92
2023-05-16T09:13:33.389Z,19.91
2023-05-16T09:16:19.058Z,19.96
2023-05-16T09:18:55.574Z,20.04
2023-05-16T09:21:35.276Z,20.06
2023-05-16T09:24:08.201Z,20.06
2023-05-16T09:26:38.543Z,20.10
2023-05-16T09:29:14.190Z,20.13
2023-05-16T09:31:42.932Z,20.13
2023-05-16T09:34:12.932Z,20.09
2023-05-16T09:36:42.890Z,20.12
2023-05-16T09:39:15.724Z,20.21
2023-05-16T09:41:44.009Z,20.28
2023-05-16T09:44:13.082Z,20.33
2023-05-16T09:46:41.420Z,20.38
2023-05-16T09:49:13.056Z,20.35
2023-05-16T09:51:41.608Z,20.31
2023-05-16T09:54:10.088Z,20.34
2023-05-16T09:56:52.290Z,20.35
2023-05-16T09:59:20.119Z,20.40
2023-05-16T10:01:49.226Z,20.53
2023-05-16T10:04:17.290Z,20.55
2023-05-16T10:06:46.371Z,20.47
2023-05-16T10:09:17.089Z,20.42
2023-05-16T10:11:45.271Z,20.44
2023-05-16T10:14:17.912Z,20.50
2023-05-16T10:16:48.945Z,20.60
2023-05-16T10:19:21.824Z,20.63
2023-05-16T10:21:55.436Z,20.70
2023-05-16T10:24:29.717Z,20.72
2023-05-16T10:26:57.933Z,20.66
2023-05-16T10:29:27.014Z,20.61
2023-05-16T10:31:55.388Z,20.59
2023-05-16T10:34:23.509Z,20.65
2023-05-16T10:36:52.451Z,20.61
2023-05-16T10:39:21.445Z,20.48
2023-05-16T10:41:49.559Z,20.38
2023-05-16T10:44:17.855Z,20.37
2023-05-16T10:46:48.339Z,20.45
2023-05-16T10:49:21.346Z,20.53
2023-05-16T10:52:07.616Z,20.56
2023-05-16T10:54:37.432Z,20.60
2023-05-16T10:57:26.186Z,20.70
2023-05-16T10:59:57.268Z,20.73
2023-05-16T11:02:29.578Z,20.74
2023-05-16T11:04:59.858Z,20.81
2023-05-16T11:07:34.713Z,20.97
2023-05-16T11:10:05.918Z,21.18
2023-05-16T11:12:52.609Z,21.40
2023-05-16T11:15:32.448Z,21.67
2023-05-16T11:18:50.486Z,21.77
2023-05-16T11:21:18.348Z,21.67
2023-05-16T11:24:26.155Z,21.61
2023-05-16T11:26:53.951Z,21.66
2023-05-16T11:29:22.455Z,21.73
2023-05-16T11:31:51.982Z,21.83
2023-05-16T11:34:19.970Z,21.90
2023-05-16T11:36:48.294Z,21.94
2023-05-16T11:39:16.647Z,21.92
2023-05-16T11:41:44.593Z,21.85
2023-05-16T11:44:13.025Z,21.81
2023-05-16T11:46:41.642Z,21.78
2023-05-16T11:49:10.371Z,21.65
2023-05-16T11:51:43.381Z,21.58
2023-05-16T11:54:13.056Z,21.59
2023-05-16T11:56:42.893Z,21.58
2023-05-16T11:59:11.682Z,21.54
2023-05-16T12:01:40.590Z,21.51
2023-05-16T12:04:13.150Z,21.47
2023-05-16T12:06:47.786Z,21.45
2023-05-16T12:09:18.396Z,21.43
2023-05-16T12:11:46.407Z,21.45
2023-05-16T12:14:14.628Z,21.50
2023-05-16T12:16:44.056Z,21.50
2023-05-16T12:19:14.234Z,21.52
2023-05-16T12:21:42.749Z,21.51
2023-05-16T12:24:12.997Z,21.36
2023-05-16T12:26:43.649Z,21.18
2023-05-16T12:29:11.696Z,21.09
2023-05-16T12:31:41.732Z,21.08
2023-05-16T12:34:20.634Z,21.04
2023-05-16T12:36:53.903Z,21.06
2023-05-16T12:39:25.737Z,21.03
2023-05-16T12:41:53.501Z,20.99
2023-05-16T12:44:23.724Z,20.86
2023-05-16T12:46:55.244Z,20.59
2023-05-16T12:49:23.356Z,20.34
2023-05-16T12:51:57.430Z,20.15
2023-05-16T12:54:25.592Z,19.97
2023-05-16T12:56:53.538Z,19.87
2023-05-16T12:59:22.240Z,19.85
2023-05-16T13:01:51.042Z,19.85
2023-05-16T13:04:20.544Z,19.85
2023-05-16T13:06:59.153Z,19.89
2023-05-16T13:09:31.439Z,19.96
2023-05-16T13:12:01.519Z,19.99
2023-05-16T13:14:29.382Z,20.04
2023-05-16T13:16:57.179Z,20.09
2023-05-16T13:19:25.134Z,20.14
2023-05-16T13:21:53.111Z,20.17
2023-05-16T13:24:21.302Z,20.26
2023-05-16T13:26:49.591Z,20.32
2023-05-16T13:29:17.385Z,20.44
2023-05-16T13:31:45.258Z,20.59
2023-05-16T13:34:13.098Z,20.70
2023-05-16T13:36:53.247Z,20.81
2023-05-16T13:39:23.138Z,20.90
2023-05-16T13:41:52.260Z,20.98
2023-05-16T13:44:20.102Z,21.05
2023-05-16T13:46:48.623Z,21.12
2023-05-16T13:49:16.455Z,21.19
2023-05-16T13:51:45.045Z,21.18
2023-05-16T13:54:12.994Z,21.10
2023-05-16T13:56:46.256Z,21.03
2023-05-16T13:59:55.129Z,20.92
2023-05-16T14:02:17.132Z,20.65
2023-05-16T14:04:46.812Z,20.45
2023-05-16T14:07:16.815Z,20.27
2023-05-16T14:09:45.423Z,20.11
2023-05-16T14:12:13.297Z,19.97
2023-05-16T14:14:41.581Z,19.79
2023-05-16T14:17:10.064Z,19.66
2023-05-16T14:19:37.932Z,19.58
2023-05-16T14:22:06.307Z,19.50
2023-05-16T14:24:34.389Z,19.41
2023-05-16T14:27:03.317Z,19.31
2023-05-16T14:29:31.240Z,19.19
2023-05-16T14:31:59.778Z,19.09
2023-05-16T14:34:27.733Z,19.00
2023-05-16T14:36:56.143Z,18.90
2023-05-16T14:39:24.041Z,18.80
2023-05-16T14:41:51.994Z,18.69
2023-05-16T14:44:21.915Z,18.61
2023-05-16T14:46:51.804Z,18.56
2023-05-16T14:49:19.639Z,18.53
2023-05-16T14:51:50.512Z,18.48
2023-05-16T14:54:19.204Z,18.41
2023-05-16T14:56:47.082Z,18.33
2023-05-16T14:59:15.282Z,18.26
2023-05-16T15:01:43.652Z,18.18
2023-05-16T15:04:12.122Z,18.14
2023-05-16T15:06:39.953Z,18.09
2023-05-16T15:09:07.820Z,18.06
2023-05-16T15:11:36.266Z,18.03
2023-05-16T15:14:04.230Z,17.98
2023-05-16T15:16:32.674Z,17.94
2023-05-16T15:19:01.183Z,17.88
2023-05-16T15:21:29.222Z,17.83
2023-05-16T15:23:57.119Z,17.79
2023-05-16T15:26:25.028Z,17.75
2023-05-16T15:28:55.647Z,17.70
2023-05-16T15:31:23.977Z,17.66
2023-05-16T15:33:52.084Z,17.61
2023-05-16T15:36:20.796Z,17.57
2023-05-16T15:38:48.671Z,17.54
2023-05-16T15:41:36.813Z,17.52
2023-05-16T15:44:05.144Z,17.50
2023-05-16T15:46:33.749Z,17.51
2023-05-16T15:49:02.267Z,17.51
2023-05-16T15:51:30.063Z,17.50
2023-05-16T15:53:58.068Z,17.48
2023-05-16T15:56:25.961Z,17.47
2023-05-16T15:58:56.196Z,17.46
2023-05-16T16:01:24.255Z,17.43
2023-05-16T16:03:52.832Z,17.40
2023-05-16T16:06:21.658Z,17.37
2023-05-16T16:08:49.764Z,17.33
2023-05-16T16:11:20.107Z,17.30
2023-05-16T16:13:48.530Z,17.26
2023-05-16T16:16:17.394Z,17.23
2023-05-16T16:18:45.440Z,17.19
2023-05-16T16:21:13.433Z,17.17
2023-05-16T16:23:42.249Z,17.14
2023-05-16T16:26:10.058Z,17.11
2023-05-16T16:28:38.536Z,17.08
2023-05-16T16:31:25.914Z,17.06
2023-05-16T16:33:54.873Z,17.04
2023-05-16T16:36:22.810Z,17.02
2023-05-16T16:38:51.560Z,17.01
2023-05-16T16:41:20.011Z,17.00
2023-05-16T16:43:48.179Z,16.99
2023-05-16T16:46:16.306Z,16.97
2023-05-16T16:48:44.406Z,16.94
2023-05-16T16:51:12.979Z,16.91
2023-05-16T16:54:00.200Z,16.88
2023-05-16T16:56:29.569Z,16.85
2023-05-16T16:58:57.642Z,16.84
2023-05-16T17:01:27.166Z,16.81
2023-05-16T17:03:58.566Z,16.79
2023-05-16T17:06:26.721Z,16.77
2023-05-16T17:08:54.732Z,16.74
2023-05-16T17:11:23.613Z,16.73
2023-05-16T17:13:52.033Z,16.71
2023-05-16T17:16:20.348Z,16.68
2023-05-16T17:18:48.841Z,16.67
2023-05-16T17:21:23.053Z,16.64
2023-05-16T17:23:51.309Z,16.60
2023-05-16T17:26:19.417Z,16.57
2023-05-16T17:28:47.267Z,16.53
2023-05-16T17:31:16.024Z,16.49
2023-05-16T17:33:44.568Z,16.46
2023-05-16T17:36:15.406Z,16.43
2023-05-16T17:38:43.233Z,16.41
2023-05-16T17:41:11.129Z,16.37
2023-05-16T17:43:39.998Z,16.34
2023-05-16T17:46:08.569Z,16.32
2023-05-16T17:48:36.435Z,16.29
2023-05-16T17:51:04.728Z,16.26
2023-05-16T17:53:32.818Z,16.25
2023-05-16T17:56:00.728Z,16.21
2023-05-16T17:59:05.170Z,16.19
2023-05-16T18:01:40.271Z,16.14
2023-05-16T18:04:08.954Z,16.11
2023-05-16T18:06:38.261Z,16.08
2023-05-16T18:09:09.889Z,16.05
2023-05-16T18:11:40.756Z,16.04
2023-05-16T18:14:09.546Z,16.03
2023-05-16T18:16:37.500Z,16.01
2023-05-16T18:19:05.698Z,16.01
2023-05-16T18:21:33.905Z,16.00
2023-05-16T18:24:02.128Z,15.99
2023-05-16T18:26:30.752Z,15.98
2023-05-16T18:28:59.400Z,15.97
2023-05-16T18:31:27.605Z,15.94
2023-05-16T18:33:55.778Z,15.92
2023-05-16T18:36:23.588Z,15.91
2023-05-16T18:38:51.609Z,15.90
2023-05-16T18:41:20.026Z,15.87
2023-05-16T18:43:48.458Z,15.86
2023-05-16T18:46:16.360Z,15.84
2023-05-16T18:48:44.259Z,15.82
2023-05-16T18:51:12.226Z,15.80
2023-05-16T18:53:40.121Z,15.76
2023-05-16T18:56:08.481Z,15.74
2023-05-16T18:58:36.919Z,15.72
2023-05-16T19:01:04.827Z,15.71
2023-05-16T19:03:33.057Z,15.68
2023-05-16T19:06:01.329Z,15.66
2023-05-16T19:08:40.400Z,15.64
2023-05-16T19:11:17.811Z,15.61
2023-05-16T19:13:47.231Z,15.58
2023-05-16T19:16:15.332Z,15.57
2023-05-16T19:18:43.440Z,15.56
2023-05-16T19:21:13.649Z,15.54
2023-05-16T19:23:41.747Z,15.53
2023-05-16T19:26:09.614Z,15.51
2023-05-16T19:28:38.019Z,15.50
2023-05-16T19:31:06.941Z,15.48
2023-05-16T19:33:34.818Z,15.47
2023-05-16T19:36:05.997Z,15.45
2023-05-16T19:38:33.842Z,15.43
2023-05-16T19:41:01.847Z,15.42
2023-05-16T19:43:30.995Z,15.40
2023-05-16T19:45:59.262Z,15.39
2023-05-16T19:48:28.153Z,15.38
2023-05-16T19:50:56.208Z,15.35
2023-05-16T19:53:24.135Z,15.32
2023-05-16T19:55:52.014Z,15.31
2023-05-16T19:58:20.435Z,15.29
2023-05-16T20:00:51.361Z,15.28
2023-05-16T20:03:19.467Z,15.25
2023-05-16T20:05:47.401Z,15.24
2023-05-16T20:08:15.319Z,15.23
2023-05-16T20:10:43.556Z,15.23
2023-05-16T20:13:12.028Z,15.24
2023-05-16T20:15:40.578Z,15.24
2023-05-16T20:18:08.566Z,15.25
2023-05-16T20:20:36.619Z,15.24
2023-05-16T20:23:04.658Z,15.23
2023-05-16T20:25:32.656Z,15.21
2023-05-16T20:28:01.868Z,15.16
2023-05-16T20:30:32.371Z,15.12
2023-05-16T20:33:00.316Z,15.09
2023-05-16T20:35:28.950Z,15.07
2023-05-16T20:37:56.938Z,15.04
2023-05-16T20:40:24.868Z,15.03
2023-05-16T20:42:53.133Z,15.03
2023-05-16T20:45:22.315Z,15.01
2023-05-16T20:47:51.410Z,15.00
2023-05-16T20:50:19.609Z,14.98
2023-05-16T20:52:47.442Z,14.96
2023-05-16T20:55:15.824Z,14.96
2023-05-16T20:57:44.184Z,14.95
2023-05-16T21:00:12.774Z,14.93
2023-05-16T21:02:40.693Z,14.90
2023-05-16T21:05:22.925Z,14.87
2023-05-16T21:07:56.979Z,14.83
2023-05-16T21:10:25.627Z,14.82
2023-05-16T21:12:53.523Z,14.81
2023-05-16T21:15:23.209Z,14.78
2023-05-16T21:17:51.668Z,14.77
2023-05-16T21:20:20.144Z,14.76
2023-05-16T21:22:48.690Z,14.75
2023-05-16T21:25:16.934Z,14.74
2023-05-16T21:27:44.987Z,14.73
2023-05-16T21:30:13.540Z,14.72
2023-05-16T21:32:41.882Z,14.70
2023-05-16T21:35:10.360Z,14.67
2023-05-16T21:37:38.177Z,14.66
2023-05-16T21:40:09.340Z,14.65
2023-05-16T21:42:37.424Z,14.64
2023-05-16T21:45:05.988Z,14.64
2023-05-16T21:47:34.494Z,14.61
2023-05-16T21:50:03.104Z,14.58
2023-05-16T21:52:30.939Z,14.56
2023-05-16T21:54:58.788Z,14.55
2023-05-16T21:57:27.337Z,14.55
2023-05-16T21:59:55.913Z,14.52
2023-05-16T22:02:24.128Z,14.52
2023-05-16T22:04:58.682Z,14.51
2023-05-16T22:07:29.343Z,14.51
2023-05-16T22:09:58.384Z,14.51
2023-05-16T22:12:27.603Z,14.51
2023-05-16T22:14:55.688Z,14.51
2023-05-16T22:17:23.641Z,14.53
2023-05-16T22:19:51.564Z,14.53
2023-05-16T22:22:20.205Z,14.54
2023-05-16T22:24:48.788Z,14.54
2023-05-16T22:27:16.614Z,14.53
2023-05-16T22:29:44.431Z,14.53
2023-05-16T22:32:12.457Z,14.54
2023-05-16T22:34:40.322Z,14.54
2023-05-16T22:37:11.178Z,14.54
2023-05-16T22:39:39.432Z,14.55
2023-05-16T22:42:07.395Z,14.55
2023-05-16T22:44:35.210Z,14.55
2023-05-16T22:47:06.315Z,14.55
2023-05-16T22:49:34.326Z,14.55
2023-05-16T22:52:02.148Z,14.55
2023-05-16T22:54:49.250Z,14.54
2023-05-16T22:57:17.259Z,14.54
2023-05-16T22:59:45.061Z,14.53
2023-05-16T23:02:13.361Z,14.54
2023-05-16T23:04:41.767Z,14.54
2023-05-16T23:07:09.695Z,14.54
2023-05-16T23:09:37.637Z,14.53
2023-05-16T23:12:06.037Z,14.51
2023-05-16T23:14:33.896Z,14.51
2023-05-16T23:17:02.190Z,14.50
2023-05-16T23:19:30.715Z,14.48
2023-05-16T23:21:58.698Z,14.47
2023-05-16T23:24:26.540Z,14.47
2023-05-16T23:26:54.389Z,14.45
2023-05-16T23:29:22.186Z,14.45
2023-05-16T23:31:50.698Z,14.45
2023-05-16T23:34:19.185Z,14.44
2023-05-16T23:36:46.964Z,14.43
2023-05-16T23:42:18.122Z,14.43
2023-05-16T23:44:46.452Z,14.40
2023-05-16T23:47:14.799Z,14.36
2023-05-16T23:49:42.644Z,14.32
2023-05-16T23:52:10.627Z,14.30
2023-05-16T23:54:56.978Z,14.28
2023-05-16T23:57:25.548Z,14.27
2023-05-16T23:59:53.484Z,14.27
